sensor_id;sensor_type;location;lat;lon;timestamp;pressure;altitude;pressure_sealevel;temperature;humidity
72585;BME280;60618;40.084;32.908;2022-07-04T00:02:19;89636.44;;;15.01;55.90
72585;BME280;60618;40.084;32.908;2022-07-04T00:04:46;89634.72;;;14.98;55.81
72585;BME280;60618;40.084;32.908;2022-07-04T00:07:13;89626.69;;;14.98;56.08
72585;BME280;60618;40.084;32.908;2022-07-04T00:09:40;89630.81;;;15.05;55.92
72585;BME280;60618;40.084;32.908;2022-07-04T00:12:08;89635.72;;;15.01;56.13
72585;BME280;60618;40.084;32.908;2022-07-04T00:14:35;89651.09;;;14.89;56.41
72585;BME280;60618;40.084;32.908;2022-07-04T00:17:06;89645.28;;;14.85;56.27
72585;BME280;60618;40.084;32.908;2022-07-04T00:19:34;89635.78;;;14.79;56.87
72585;BME280;60618;40.084;32.908;2022-07-04T00:22:00;89634.13;;;14.75;56.90
72585;BME280;60618;40.084;32.908;2022-07-04T00:24:27;89629.47;;;14.76;56.57
72585;BME280;60618;40.084;32.908;2022-07-04T00:26:54;89623.88;;;14.74;56.91
72585;BME280;60618;40.084;32.908;2022-07-04T00:29:21;89625.09;;;14.73;57.02
72585;BME280;60618;40.084;32.908;2022-07-04T00:31:48;89622.91;;;14.71;57.39
72585;BME280;60618;40.084;32.908;2022-07-04T00:34:15;89621.22;;;14.68;57.29
72585;BME280;60618;40.084;32.908;2022-07-04T00:36:42;89616.13;;;14.65;57.13
72585;BME280;60618;40.084;32.908;2022-07-04T00:39:09;89604.41;;;14.62;57.45
72585;BME280;60618;40.084;32.908;2022-07-04T00:41:36;89611.50;;;14.65;58.05
72585;BME280;60618;40.084;32.908;2022-07-04T00:44:05;89609.31;;;14.58;57.92
72585;BME280;60618;40.084;32.908;2022-07-04T00:46:41;89610.31;;;14.50;57.48
72585;BME280;60618;40.084;32.908;2022-07-04T00:49:09;89614.47;;;14.45;58.76
72585;BME280;60618;40.084;32.908;2022-07-04T00:51:40;89616.88;;;14.37;58.96
72585;BME280;60618;40.084;32.908;2022-07-04T00:54:09;89615.69;;;14.33;58.60
72585;BME280;60618;40.084;32.908;2022-07-04T00:56:37;89610.84;;;14.31;58.94
72585;BME280;60618;40.084;32.908;2022-07-04T00:59:05;89610.09;;;14.31;59.32
72585;BME280;60618;40.084;32.908;2022-07-04T01:01:32;89619.84;;;14.28;58.49
72585;BME280;60618;40.084;32.908;2022-07-04T01:04:02;89620.09;;;14.30;59.12
72585;BME280;60618;40.084;32.908;2022-07-04T01:06:30;89608.88;;;14.26;59.75
72585;BME280;60618;40.084;32.908;2022-07-04T01:08:57;89615.47;;;14.31;59.47
72585;BME280;60618;40.084;32.908;2022-07-04T01:11:24;89613.56;;;14.20;59.39
72585;BME280;60618;40.084;32.908;2022-07-04T01:13:52;89619.88;;;14.17;59.41
72585;BME280;60618;40.084;32.908;2022-07-04T01:16:19;89618.41;;;14.10;59.85
72585;BME280;60618;40.084;32.908;2022-07-04T01:18:47;89619.91;;;14.06;60.06
72585;BME280;60618;40.084;32.908;2022-07-04T01:21:13;89616.50;;;14.00;59.87
72585;BME280;60618;40.084;32.908;2022-07-04T01:23:41;89622.84;;;13.97;60.34
72585;BME280;60618;40.084;32.908;2022-07-04T01:26:08;89610.66;;;13.96;60.12
72585;BME280;60618;40.084;32.908;2022-07-04T01:28:35;89599.47;;;13.97;60.67
72585;BME280;60618;40.084;32.908;2022-07-04T01:31:02;89604.09;;;13.97;60.71
72585;BME280;60618;40.084;32.908;2022-07-04T01:33:29;89611.63;;;13.92;60.52
72585;BME280;60618;40.084;32.908;2022-07-04T01:35:56;89610.66;;;13.90;60.69
72585;BME280;60618;40.084;32.908;2022-07-04T01:38:23;89608.72;;;13.90;60.66
72585;BME280;60618;40.084;32.908;2022-07-04T01:40:50;89605.06;;;13.94;60.49
72585;BME280;60618;40.084;32.908;2022-07-04T01:43:17;89598.00;;;13.90;60.52
72585;BME280;60618;40.084;32.908;2022-07-04T01:45:44;89596.06;;;13.91;60.87
72585;BME280;60618;40.084;32.908;2022-07-04T01:48:13;89595.31;;;13.90;61.04
72585;BME280;60618;40.084;32.908;2022-07-04T01:50:40;89595.81;;;13.83;60.48
72585;BME280;60618;40.084;32.908;2022-07-04T01:53:07;89599.47;;;13.80;61.45
72585;BME280;60618;40.084;32.908;2022-07-04T01:55:34;89606.06;;;13.79;60.93
72585;BME280;60618;40.084;32.908;2022-07-04T01:58:01;89604.38;;;13.76;61.83
72585;BME280;60618;40.084;32.908;2022-07-04T02:00:28;89605.59;;;13.75;61.72
72585;BME280;60618;40.084;32.908;2022-07-04T02:02:55;89602.41;;;13.77;61.31
72585;BME280;60618;40.084;32.908;2022-07-04T02:05:22;89585.13;;;13.72;61.52
72585;BME280;60618;40.084;32.908;2022-07-04T02:07:49;89599.00;;;13.71;61.24
72585;BME280;60618;40.084;32.908;2022-07-04T02:10:16;89608.00;;;13.68;61.25
72585;BME280;60618;40.084;32.908;2022-07-04T02:12:44;89608.50;;;13.66;61.22
72585;BME280;60618;40.084;32.908;2022-07-04T02:15:11;89598.28;;;13.59;61.32
72585;BME280;60618;40.084;32.908;2022-07-04T02:17:37;89606.56;;;13.61;61.45
72585;BME280;60618;40.084;32.908;2022-07-04T02:20:05;89609.00;;;13.59;61.23
72585;BME280;60618;40.084;32.908;2022-07-04T02:22:32;89615.31;;;13.61;61.19
72585;BME280;60618;40.084;32.908;2022-07-04T02:24:59;89613.34;;;13.62;61.38
72585;BME280;60618;40.084;32.908;2022-07-04T02:27:26;89606.28;;;13.64;61.26
72585;BME280;60618;40.084;32.908;2022-07-04T02:29:52;89601.19;;;13.61;61.57
72585;BME280;60618;40.084;32.908;2022-07-04T02:32:19;89601.94;;;13.61;61.55
72585;BME280;60618;40.084;32.908;2022-07-04T02:34:46;89611.66;;;13.64;61.77
72585;BME280;60618;40.084;32.908;2022-07-04T02:37:14;89612.38;;;13.65;61.52
72585;BME280;60618;40.084;32.908;2022-07-04T02:39:41;89608.50;;;13.66;61.77
72585;BME280;60618;40.084;32.908;2022-07-04T02:42:08;89606.31;;;13.70;61.46
72585;BME280;60618;40.084;32.908;2022-07-04T02:44:35;89615.31;;;13.67;61.52
72585;BME280;60618;40.084;32.908;2022-07-04T02:47:02;89614.81;;;13.63;61.35
72585;BME280;60618;40.084;32.908;2022-07-04T02:49:29;89616.53;;;13.66;61.36
72585;BME280;60618;40.084;32.908;2022-07-04T02:51:56;89626.25;;;13.69;61.20
72585;BME280;60618;40.084;32.908;2022-07-04T02:54:23;89631.84;;;13.71;61.34
72585;BME280;60618;40.084;32.908;2022-07-04T02:56:50;89628.94;;;13.69;61.11
72585;BME280;60618;40.084;32.908;2022-07-04T02:59:16;89625.03;;;13.70;61.26
72585;BME280;60618;40.084;32.908;2022-07-04T03:01:43;89622.59;;;13.72;60.97
72585;BME280;60618;40.084;32.908;2022-07-04T03:04:10;89619.19;;;13.77;61.21
72585;BME280;60618;40.084;32.908;2022-07-04T03:06:37;89624.53;;;13.88;60.41
72585;BME280;60618;40.084;32.908;2022-07-04T03:09:04;89629.63;;;13.92;60.95
72585;BME280;60618;40.084;32.908;2022-07-04T03:11:31;89621.13;;;13.94;60.33
72585;BME280;60618;40.084;32.908;2022-07-04T03:13:58;89624.53;;;14.00;60.34
72585;BME280;60618;40.084;32.908;2022-07-04T03:16:25;89622.31;;;14.09;60.15
72585;BME280;60618;40.084;32.908;2022-07-04T03:18:52;89630.81;;;14.19;59.99
72585;BME280;60618;40.084;32.908;2022-07-04T03:21:19;89638.38;;;14.20;59.68
72585;BME280;60618;40.084;32.908;2022-07-04T03:23:46;89629.59;;;14.26;59.56
72585;BME280;60618;40.084;32.908;2022-07-04T03:26:13;89633.72;;;14.32;59.52
72585;BME280;60618;40.084;32.908;2022-07-04T03:28:40;89632.97;;;14.37;58.91
72585;BME280;60618;40.084;32.908;2022-07-04T03:31:13;89633.69;;;14.43;59.16
72585;BME280;60618;40.084;32.908;2022-07-04T03:33:40;89635.41;;;14.52;58.51
72585;BME280;60618;40.084;32.908;2022-07-04T03:36:07;89629.53;;;14.59;58.84
72585;BME280;60618;40.084;32.908;2022-07-04T03:38:34;89629.75;;;14.67;58.53
72585;BME280;60618;40.084;32.908;2022-07-04T03:41:01;89632.38;;;14.78;58.24
72585;BME280;60618;40.084;32.908;2022-07-04T03:43:28;89622.84;;;14.88;57.58
72585;BME280;60618;40.084;32.908;2022-07-04T03:45:55;89627.69;;;14.95;57.82
72585;BME280;60618;40.084;32.908;2022-07-04T03:48:22;89634.72;;;14.98;57.26
72585;BME280;60618;40.084;32.908;2022-07-04T03:50:49;89632.53;;;15.02;57.41
72585;BME280;60618;40.084;32.908;2022-07-04T03:53:16;89627.13;;;15.08;56.88
72585;BME280;60618;40.084;32.908;2022-07-04T03:55:43;89638.53;;;15.20;56.78
72585;BME280;60618;40.084;32.908;2022-07-04T03:58:10;89636.03;;;15.27;56.65
72585;BME280;60618;40.084;32.908;2022-07-04T04:00:37;89634.78;;;15.34;56.17
72585;BME280;60618;40.084;32.908;2022-07-04T04:03:04;89637.38;;;15.45;56.10
72585;BME280;60618;40.084;32.908;2022-07-04T04:05:31;89629.28;;;15.56;55.55
72585;BME280;60618;40.084;32.908;2022-07-04T04:07:59;89632.41;;;15.66;55.41
72585;BME280;60618;40.084;32.908;2022-07-04T04:10:28;89631.59;;;15.77;54.60
72585;BME280;60618;40.084;32.908;2022-07-04T04:12:57;89634.41;;;15.90;54.91
72585;BME280;60618;40.084;32.908;2022-07-04T04:15:24;89628.69;;;16.05;54.27
72585;BME280;60618;40.084;32.908;2022-07-04T04:17:51;89625.41;;;16.17;53.31
72585;BME280;60618;40.084;32.908;2022-07-04T04:20:18;89627.75;;;16.27;52.37
72585;BME280;60618;40.084;32.908;2022-07-04T04:22:45;89620.56;;;16.35;51.89
72585;BME280;60618;40.084;32.908;2022-07-04T04:25:11;89621.72;;;16.45;51.03
72585;BME280;60618;40.084;32.908;2022-07-04T04:27:38;89622.59;;;16.53;50.76
72585;BME280;60618;40.084;32.908;2022-07-04T04:30:06;89622.69;;;16.66;50.15
72585;BME280;60618;40.084;32.908;2022-07-04T04:32:33;89632.91;;;16.73;50.03
72585;BME280;60618;40.084;32.908;2022-07-04T04:35:00;89638.69;;;16.83;49.77
72585;BME280;60618;40.084;32.908;2022-07-04T04:37:27;89631.72;;;16.93;49.69
72585;BME280;60618;40.084;32.908;2022-07-04T04:39:54;89630.16;;;16.98;50.00
72585;BME280;60618;40.084;32.908;2022-07-04T04:42:21;89626.13;;;17.10;49.45
72585;BME280;60618;40.084;32.908;2022-07-04T04:44:48;89635.06;;;17.18;49.48
72585;BME280;60618;40.084;32.908;2022-07-04T04:47:15;89629.84;;;17.26;49.50
72585;BME280;60618;40.084;32.908;2022-07-04T04:49:42;89634.94;;;17.29;49.25
72585;BME280;60618;40.084;32.908;2022-07-04T04:52:08;89632.81;;;17.41;48.75
72585;BME280;60618;40.084;32.908;2022-07-04T04:54:35;89638.13;;;17.47;48.74
72585;BME280;60618;40.084;32.908;2022-07-04T04:57:03;89634.19;;;17.48;48.67
72585;BME280;60618;40.084;32.908;2022-07-04T04:59:30;89630.69;;;17.53;49.28
72585;BME280;60618;40.084;32.908;2022-07-04T05:01:57;89637.38;;;17.65;49.13
72585;BME280;60618;40.084;32.908;2022-07-04T05:04:25;89632.88;;;17.73;47.47
72585;BME280;60618;40.084;32.908;2022-07-04T05:06:52;89639.13;;;17.81;47.08
72585;BME280;60618;40.084;32.908;2022-07-04T05:09:19;89642.06;;;17.97;48.02
72585;BME280;60618;40.084;32.908;2022-07-04T05:11:47;89639.22;;;18.08;47.99
72585;BME280;60618;40.084;32.908;2022-07-04T05:14:14;89635.16;;;18.14;47.26
72585;BME280;60618;40.084;32.908;2022-07-04T05:16:42;89636.25;;;18.25;47.43
72585;BME280;60618;40.084;32.908;2022-07-04T05:19:09;89635.63;;;18.32;47.15
72585;BME280;60618;40.084;32.908;2022-07-04T05:21:35;89629.09;;;18.40;47.47
72585;BME280;60618;40.084;32.908;2022-07-04T05:24:02;89631.19;;;18.48;46.55
72585;BME280;60618;40.084;32.908;2022-07-04T05:26:29;89633.69;;;18.46;45.87
72585;BME280;60618;40.084;32.908;2022-07-04T05:28:56;89633.97;;;18.42;45.75
72585;BME280;60618;40.084;32.908;2022-07-04T05:31:23;89627.25;;;18.35;44.75
72585;BME280;60618;40.084;32.908;2022-07-04T05:33:53;89634.81;;;18.37;45.77
72585;BME280;60618;40.084;32.908;2022-07-04T05:36:22;89626.72;;;18.50;46.31
72585;BME280;60618;40.084;32.908;2022-07-04T05:38:55;89625.38;;;18.57;46.42
72585;BME280;60618;40.084;32.908;2022-07-04T05:41:22;89614.00;;;18.77;46.16
72585;BME280;60618;40.084;32.908;2022-07-04T05:43:49;89624.38;;;18.99;45.27
72585;BME280;60618;40.084;32.908;2022-07-04T05:46:23;89622.28;;;19.06;44.11
72585;BME280;60618;40.084;32.908;2022-07-04T05:48:50;89618.03;;;19.10;44.72
72585;BME280;60618;40.084;32.908;2022-07-04T05:51:17;89619.66;;;19.26;44.34
72585;BME280;60618;40.084;32.908;2022-07-04T05:53:44;89619.13;;;19.41;44.12
72585;BME280;60618;40.084;32.908;2022-07-04T05:56:11;89615.03;;;19.48;43.64
72585;BME280;60618;40.084;32.908;2022-07-04T05:58:37;89620.13;;;19.51;43.66
72585;BME280;60618;40.084;32.908;2022-07-04T06:01:04;89609.50;;;19.53;43.84
72585;BME280;60618;40.084;32.908;2022-07-04T06:03:32;89619.28;;;19.56;43.39
72585;BME280;60618;40.084;32.908;2022-07-04T06:05:59;89614.03;;;19.72;43.28
72585;BME280;60618;40.084;32.908;2022-07-04T06:08:26;89617.34;;;19.78;42.77
72585;BME280;60618;40.084;32.908;2022-07-04T06:10:53;89613.97;;;19.85;42.45
72585;BME280;60618;40.084;32.908;2022-07-04T06:13:19;89605.94;;;19.93;41.89
72585;BME280;60618;40.084;32.908;2022-07-04T06:15:46;89620.78;;;19.99;41.86
72585;BME280;60618;40.084;32.908;2022-07-04T06:18:13;89609.59;;;19.95;41.66
72585;BME280;60618;40.084;32.908;2022-07-04T06:20:40;89610.97;;;20.09;40.84
72585;BME280;60618;40.084;32.908;2022-07-04T06:23:07;89612.03;;;20.06;41.17
72585;BME280;60618;40.084;32.908;2022-07-04T06:25:34;89592.81;;;20.18;40.73
72585;BME280;60618;40.084;32.908;2022-07-04T06:28:02;89590.31;;;20.20;40.20
72585;BME280;60618;40.084;32.908;2022-07-04T06:30:29;89598.22;;;20.18;40.12
72585;BME280;60618;40.084;32.908;2022-07-04T06:32:57;89591.75;;;20.21;40.08
72585;BME280;60618;40.084;32.908;2022-07-04T06:35:26;89593.06;;;20.27;39.83
72585;BME280;60618;40.084;32.908;2022-07-04T06:37:53;89588.38;;;20.28;40.03
72585;BME280;60618;40.084;32.908;2022-07-04T06:40:21;89584.09;;;20.32;39.74
72585;BME280;60618;40.084;32.908;2022-07-04T06:42:49;89601.44;;;20.37;39.34
72585;BME280;60618;40.084;32.908;2022-07-04T06:45:16;89593.31;;;20.37;39.58
72585;BME280;60618;40.084;32.908;2022-07-04T06:47:43;89584.88;;;20.40;39.67
72585;BME280;60618;40.084;32.908;2022-07-04T06:50:12;89592.34;;;20.48;39.42
72585;BME280;60618;40.084;32.908;2022-07-04T06:53:00;89589.84;;;20.50;39.06
72585;BME280;60618;40.084;32.908;2022-07-04T06:55:27;89575.91;;;20.46;38.78
72585;BME280;60618;40.084;32.908;2022-07-04T06:57:54;89578.69;;;20.53;37.91
72585;BME280;60618;40.084;32.908;2022-07-04T07:00:21;89586.69;;;20.66;38.48
72585;BME280;60618;40.084;32.908;2022-07-04T07:02:49;89580.47;;;20.79;38.01
72585;BME280;60618;40.084;32.908;2022-07-04T07:05:16;89585.72;;;20.85;37.48
72585;BME280;60618;40.084;32.908;2022-07-04T07:07:43;89578.88;;;20.91;38.08
72585;BME280;60618;40.084;32.908;2022-07-04T07:10:10;89577.13;;;20.94;37.43
72585;BME280;60618;40.084;32.908;2022-07-04T07:12:36;89576.22;;;20.99;37.77
72585;BME280;60618;40.084;32.908;2022-07-04T07:15:03;89572.81;;;21.06;37.36
72585;BME280;60618;40.084;32.908;2022-07-04T07:17:31;89582.56;;;21.09;36.02
72585;BME280;60618;40.084;32.908;2022-07-04T07:19:57;89578.09;;;21.12;36.67
72585;BME280;60618;40.084;32.908;2022-07-04T07:22:24;89572.69;;;21.19;37.18
72585;BME280;60618;40.084;32.908;2022-07-04T07:24:52;89574.91;;;21.29;36.77
72585;BME280;60618;40.084;32.908;2022-07-04T07:27:19;89571.16;;;21.32;36.87
72585;BME280;60618;40.084;32.908;2022-07-04T07:29:46;89579.09;;;21.37;36.65
72585;BME280;60618;40.084;32.908;2022-07-04T07:32:13;89575.50;;;21.42;35.50
72585;BME280;60618;40.084;32.908;2022-07-04T07:34:40;89574.09;;;21.49;34.25
72585;BME280;60618;40.084;32.908;2022-07-04T07:37:07;89579.81;;;21.38;33.86
72585;BME280;60618;40.084;32.908;2022-07-04T07:39:34;89578.03;;;21.40;35.89
72585;BME280;60618;40.084;32.908;2022-07-04T07:42:07;89573.38;;;21.56;35.71
72585;BME280;60618;40.084;32.908;2022-07-04T07:44:34;89571.81;;;21.76;35.15
72585;BME280;60618;40.084;32.908;2022-07-04T07:47:01;89575.97;;;21.85;34.97
72585;BME280;60618;40.084;32.908;2022-07-04T07:49:28;89572.00;;;21.86;33.58
72585;BME280;60618;40.084;32.908;2022-07-04T07:51:55;89580.66;;;21.92;34.55
72585;BME280;60618;40.084;32.908;2022-07-04T07:54:22;89575.97;;;22.00;34.35
72585;BME280;60618;40.084;32.908;2022-07-04T07:57:09;89579.63;;;22.10;34.53
72585;BME280;60618;40.084;32.908;2022-07-04T07:59:36;89570.78;;;22.17;34.23
72585;BME280;60618;40.084;32.908;2022-07-04T08:02:03;89573.47;;;22.09;33.20
72585;BME280;60618;40.084;32.908;2022-07-04T08:04:30;89580.38;;;22.26;33.70
72585;BME280;60618;40.084;32.908;2022-07-04T08:06:57;89578.03;;;22.22;32.49
72585;BME280;60618;40.084;32.908;2022-07-04T08:09:44;89570.97;;;22.34;32.97
72585;BME280;60618;40.084;32.908;2022-07-04T08:12:11;89576.00;;;22.46;32.99
72585;BME280;60618;40.084;32.908;2022-07-04T08:14:38;89576.38;;;22.42;31.67
72585;BME280;60618;40.084;32.908;2022-07-04T08:17:05;89566.25;;;22.43;32.92
72585;BME280;60618;40.084;32.908;2022-07-04T08:19:32;89570.56;;;22.53;32.14
72585;BME280;60618;40.084;32.908;2022-07-04T08:21:59;89568.03;;;22.63;31.47
72585;BME280;60618;40.084;32.908;2022-07-04T08:24:43;89568.59;;;22.54;29.86
72585;BME280;60618;40.084;32.908;2022-07-04T08:27:11;89568.41;;;22.36;29.55
72585;BME280;60618;40.084;32.908;2022-07-04T08:29:39;89563.19;;;22.31;30.73
72585;BME280;60618;40.084;32.908;2022-07-04T08:32:06;89563.91;;;22.47;30.84
72585;BME280;60618;40.084;32.908;2022-07-04T08:34:34;89562.63;;;22.48;30.45
72585;BME280;60618;40.084;32.908;2022-07-04T08:37:02;89559.72;;;22.61;30.16
72585;BME280;60618;40.084;32.908;2022-07-04T08:39:29;89562.97;;;22.52;28.95
72585;BME280;60618;40.084;32.908;2022-07-04T08:42:02;89551.59;;;22.46;29.00
72585;BME280;60618;40.084;32.908;2022-07-04T08:44:30;89568.25;;;22.50;28.63
72585;BME280;60618;40.084;32.908;2022-07-04T08:46:57;89562.44;;;22.61;28.68
72585;BME280;60618;40.084;32.908;2022-07-04T08:49:30;89558.63;;;22.64;28.49
72585;BME280;60618;40.084;32.908;2022-07-04T08:52:05;89548.66;;;22.66;27.27
72585;BME280;60618;40.084;32.908;2022-07-04T08:54:33;89555.00;;;22.84;28.40
72585;BME280;60618;40.084;32.908;2022-07-04T08:57:00;89555.72;;;22.85;27.91
72585;BME280;60618;40.084;32.908;2022-07-04T08:59:27;89549.88;;;22.96;26.99
72585;BME280;60618;40.084;32.908;2022-07-04T09:01:54;89549.56;;;22.69;25.54
72585;BME280;60618;40.084;32.908;2022-07-04T09:04:21;89542.53;;;22.66;27.19
72585;BME280;60618;40.084;32.908;2022-07-04T09:06:49;89545.75;;;22.72;27.58
72585;BME280;60618;40.084;32.908;2022-07-04T09:09:17;89548.81;;;22.91;27.48
72585;BME280;60618;40.084;32.908;2022-07-04T09:11:44;89538.31;;;22.96;25.62
72585;BME280;60618;40.084;32.908;2022-07-04T09:14:11;89559.31;;;22.95;25.61
72585;BME280;60618;40.084;32.908;2022-07-04T09:16:38;89540.81;;;23.01;26.28
72585;BME280;60618;40.084;32.908;2022-07-04T09:19:09;89534.66;;;23.01;24.68
72585;BME280;60618;40.084;32.908;2022-07-04T09:21:46;89543.03;;;22.87;24.60
72585;BME280;60618;40.084;32.908;2022-07-04T09:24:14;89540.47;;;22.82;25.50
72585;BME280;60618;40.084;32.908;2022-07-04T09:26:44;89544.13;;;22.84;26.47
72585;BME280;60618;40.084;32.908;2022-07-04T09:29:12;89536.69;;;22.92;26.47
72585;BME280;60618;40.084;32.908;2022-07-04T09:31:39;89538.78;;;23.09;26.49
72585;BME280;60618;40.084;32.908;2022-07-04T09:34:07;89530.56;;;23.25;26.01
72585;BME280;60618;40.084;32.908;2022-07-04T09:36:39;89534.88;;;23.35;25.79
72585;BME280;60618;40.084;32.908;2022-07-04T09:39:15;89533.78;;;23.38;25.32
72585;BME280;60618;40.084;32.908;2022-07-04T09:41:54;89525.38;;;23.51;25.37
72585;BME280;60618;40.084;32.908;2022-07-04T09:44:27;89541.28;;;23.63;24.52
72585;BME280;60618;40.084;32.908;2022-07-04T09:46:54;89528.38;;;23.71;25.04
72585;BME280;60618;40.084;32.908;2022-07-04T09:49:22;89532.31;;;23.77;25.25
72585;BME280;60618;40.084;32.908;2022-07-04T09:51:51;89531.31;;;23.90;24.47
72585;BME280;60618;40.084;32.908;2022-07-04T09:56:47;89529.88;;;23.89;23.61
72585;BME280;60618;40.084;32.908;2022-07-04T09:59:14;89534.56;;;23.96;22.92
72585;BME280;60618;40.084;32.908;2022-07-04T10:01:41;89533.63;;;24.01;23.74
72585;BME280;60618;40.084;32.908;2022-07-04T10:04:08;89538.81;;;24.07;23.47
72585;BME280;60618;40.084;32.908;2022-07-04T10:06:38;89527.16;;;23.89;21.62
72585;BME280;60618;40.084;32.908;2022-07-04T10:09:16;89533.88;;;23.88;23.51
72585;BME280;60618;40.084;32.908;2022-07-04T10:11:46;89521.22;;;23.83;22.31
72585;BME280;60618;40.084;32.908;2022-07-04T10:14:13;89525.50;;;23.94;22.16
72585;BME280;60618;40.084;32.908;2022-07-04T10:16:41;89527.41;;;24.09;22.43
72585;BME280;60618;40.084;32.908;2022-07-04T10:19:09;89521.50;;;24.20;22.27
72585;BME280;60618;40.084;32.908;2022-07-04T10:21:36;89528.56;;;24.23;22.56
72585;BME280;60618;40.084;32.908;2022-07-04T10:24:03;89520.94;;;24.21;22.74
72585;BME280;60618;40.084;32.908;2022-07-04T10:26:31;89513.66;;;24.24;22.01
72585;BME280;60618;40.084;32.908;2022-07-04T10:28:58;89519.06;;;24.31;22.30
72585;BME280;60618;40.084;32.908;2022-07-04T10:31:27;89520.84;;;24.37;22.21
72585;BME280;60618;40.084;32.908;2022-07-04T10:33:56;89515.78;;;24.33;20.95
72585;BME280;60618;40.084;32.908;2022-07-04T10:36:25;89519.09;;;24.24;20.90
72585;BME280;60618;40.084;32.908;2022-07-04T10:38:54;89501.69;;;24.27;22.38
72585;BME280;60618;40.084;32.908;2022-07-04T10:41:22;89512.34;;;24.32;21.37
72585;BME280;60618;40.084;32.908;2022-07-04T10:44:03;89504.84;;;24.41;22.17
72585;BME280;60618;40.084;32.908;2022-07-04T10:46:35;89505.34;;;24.47;21.96
72585;BME280;60618;40.084;32.908;2022-07-04T10:59:11;89508.00;;;24.29;20.50
72585;BME280;60618;40.084;32.908;2022-07-04T11:01:48;89495.94;;;24.15;21.70
72585;BME280;60618;40.084;32.908;2022-07-04T11:07:16;89493.81;;;24.31;20.09
72585;BME280;60618;40.084;32.908;2022-07-04T11:09:44;89499.06;;;24.37;21.01
72585;BME280;60618;40.084;32.908;2022-07-04T11:12:12;89494.03;;;24.50;20.89
72585;BME280;60618;40.084;32.908;2022-07-04T11:17:21;89494.66;;;24.41;19.58
72585;BME280;60618;40.084;32.908;2022-07-04T11:19:59;89504.63;;;24.63;19.15
72585;BME280;60618;40.084;32.908;2022-07-04T11:22:26;89502.28;;;24.43;17.37
72585;BME280;60618;40.084;32.908;2022-07-04T11:24:53;89487.47;;;24.36;16.84
72585;BME280;60618;40.084;32.908;2022-07-04T11:27:21;89483.78;;;24.41;17.68
72585;BME280;60618;40.084;32.908;2022-07-04T11:29:52;89489.09;;;24.56;18.15
72585;BME280;60618;40.084;32.908;2022-07-04T11:32:21;89487.88;;;24.67;18.27
72585;BME280;60618;40.084;32.908;2022-07-04T11:34:48;89499.28;;;24.73;16.34
72585;BME280;60618;40.084;32.908;2022-07-04T11:37:15;89485.72;;;24.66;16.37
72585;BME280;60618;40.084;32.908;2022-07-04T11:39:42;89482.50;;;24.59;16.43
72585;BME280;60618;40.084;32.908;2022-07-04T11:42:09;89483.31;;;24.52;17.37
72585;BME280;60618;40.084;32.908;2022-07-04T11:44:41;89483.88;;;24.51;17.35
72585;BME280;60618;40.084;32.908;2022-07-04T11:47:14;89476.41;;;24.51;17.63
72585;BME280;60618;40.084;32.908;2022-07-04T11:52:14;89473.28;;;24.38;17.38
72585;BME280;60618;40.084;32.908;2022-07-04T11:54:46;89470.44;;;24.28;15.20
72585;BME280;60618;40.084;32.908;2022-07-04T11:57:22;89482.22;;;24.30;14.22
72585;BME280;60618;40.084;32.908;2022-07-04T12:00:04;89476.41;;;24.34;14.80
72585;BME280;60618;40.084;32.908;2022-07-04T12:02:32;89465.69;;;24.36;15.10
72585;BME280;60618;40.084;32.908;2022-07-04T12:05:00;89477.34;;;24.29;14.50
72585;BME280;60618;40.084;32.908;2022-07-04T12:07:28;89474.78;;;24.31;15.11
72585;BME280;60618;40.084;32.908;2022-07-04T12:09:57;89477.72;;;24.25;17.33
72585;BME280;60618;40.084;32.908;2022-07-04T12:12:32;89464.66;;;24.24;16.71
72585;BME280;60618;40.084;32.908;2022-07-04T12:15:05;89467.53;;;24.26;16.69
72585;BME280;60618;40.084;32.908;2022-07-04T12:20:10;89462.44;;;24.30;18.08
72585;BME280;60618;40.084;32.908;2022-07-04T12:22:42;89462.00;;;24.41;18.71
72585;BME280;60618;40.084;32.908;2022-07-04T12:25:27;89460.72;;;24.42;17.01
72585;BME280;60618;40.084;32.908;2022-07-04T12:28:33;89451.75;;;24.49;18.15
72585;BME280;60618;40.084;32.908;2022-07-04T12:30:58;89447.97;;;24.79;18.70
72585;BME280;60618;40.084;32.908;2022-07-04T12:33:28;89453.19;;;24.85;19.65
72585;BME280;60618;40.084;32.908;2022-07-04T12:36:05;89445.66;;;25.10;19.68
72585;BME280;60618;40.084;32.908;2022-07-04T12:38:37;89445.56;;;25.18;19.84
72585;BME280;60618;40.084;32.908;2022-07-04T12:41:09;89445.47;;;25.26;19.92
72585;BME280;60618;40.084;32.908;2022-07-04T12:46:32;89446.78;;;25.34;19.87
72585;BME280;60618;40.084;32.908;2022-07-04T12:49:16;89442.94;;;25.37;19.77
72585;BME280;60618;40.084;32.908;2022-07-04T12:51:43;89439.25;;;25.52;20.44
72585;BME280;60618;40.084;32.908;2022-07-04T12:54:10;89438.25;;;25.47;20.51
72585;BME280;60618;40.084;32.908;2022-07-04T12:56:45;89436.69;;;25.54;21.03
72585;BME280;60618;40.084;32.908;2022-07-04T12:59:14;89440.25;;;25.47;20.11
72585;BME280;60618;40.084;32.908;2022-07-04T13:01:43;89439.88;;;25.33;19.73
72585;BME280;60618;40.084;32.908;2022-07-04T13:04:11;89434.94;;;25.22;19.72
72585;BME280;60618;40.084;32.908;2022-07-04T13:06:38;89433.41;;;25.29;20.99
72585;BME280;60618;40.084;32.908;2022-07-04T13:09:06;89436.97;;;25.22;20.67
72585;BME280;60618;40.084;32.908;2022-07-04T13:11:34;89425.03;;;25.17;21.33
72585;BME280;60618;40.084;32.908;2022-07-04T13:14:01;89430.63;;;25.19;21.78
72585;BME280;60618;40.084;32.908;2022-07-04T13:16:28;89428.63;;;25.19;20.43
72585;BME280;60618;40.084;32.908;2022-07-04T13:18:54;89421.25;;;25.12;20.80
72585;BME280;60618;40.084;32.908;2022-07-04T13:21:23;89421.88;;;25.21;21.39
72585;BME280;60618;40.084;32.908;2022-07-04T13:23:50;89422.47;;;25.19;21.31